Time;durP1;ratioP1;P1;durP2;ratioP2;P2;SDS_P1;SDS_P2;PMS_P1;PMS_P2;Temp;Humidity;BMP_temperature;BMP_pressure;BME280_temperature;BME280_humidity;BME280_pressure;Samples;Min_cycle;Max_cycle;Signal;HPM_P1;HPM_P2
2021/05/03 00:01:02;;;;;;;;;;;1.40;96.80;;;;;;5092058;28;20452;-71
2021/05/03 00:03:27;;;;;;;;;;;1.40;97.10;;;;;;5084250;28;19928;-69
2021/05/03 00:05:57;;;;;;;;;;;1.20;97.20;;;;;;5091930;28;20297;-71
2021/05/03 00:08:23;;;;;;;;;;;1.10;97.00;;;;;;5079780;28;20244;-71
2021/05/03 00:10:48;;;;;;;;;;;1.10;97.00;;;;;;5077680;28;19912;-71
2021/05/03 00:13:17;;;;;;;;;;;1.10;97.00;;;;;;5093714;28;20197;-70
2021/05/03 00:15:43;;;;;;;;;;;1.10;97.20;;;;;;5088798;28;19921;-70
2021/05/03 00:18:08;;;;;;;;;;;1.00;97.00;;;;;;5080904;28;19917;-71
2021/05/03 00:20:34;;;;;;;;;;;1.00;96.80;;;;;;5080420;28;19958;-70
2021/05/03 00:22:59;;;;;;;;;;;1.00;96.70;;;;;;5081712;28;19918;-71
2021/05/03 00:25:25;;;;;;;;;;;1.10;96.60;;;;;;5092215;28;19916;-72
2021/05/03 00:27:51;;;;;;;;;;;1.20;96.80;;;;;;5082249;28;19913;-71
2021/05/03 00:30:16;;;;;;;;;;;1.20;96.80;;;;;;5077274;28;19962;-70
2021/05/03 00:32:43;;;;;;;;;;;0.90;97.10;;;;;;5075487;28;19908;-70
2021/05/03 00:35:09;;;;;;;;;;;0.80;96.70;;;;;;5080252;28;19912;-71
2021/05/03 00:37:34;;;;;;;;;;;0.90;96.60;;;;;;5082589;28;20422;-70
2021/05/03 00:40:00;;;;;;;;;;;0.90;96.80;;;;;;5090236;28;19916;-69
2021/05/03 00:42:25;;;;;;;;;;;1.10;96.70;;;;;;5083432;28;19922;-71
2021/05/03 00:44:51;;;;;;;;;;;1.00;97.00;;;;;;5066186;28;19920;-70
2021/05/03 00:47:20;;;;;;;;;;;0.90;96.90;;;;;;5066035;28;19917;-69
2021/05/03 00:49:46;;;;;;;;;;;0.80;96.90;;;;;;5077583;28;19919;-69
2021/05/03 00:52:12;;;;;;;;;;;0.70;97.00;;;;;;5084607;28;19916;-71
2021/05/03 00:54:38;;;;;;;;;;;0.70;96.90;;;;;;5077731;28;19989;-71
2021/05/03 00:57:04;;;;;;;;;;;0.70;96.60;;;;;;5092877;28;19923;-71
2021/05/03 00:59:30;;;;;;;;;;;0.70;96.70;;;;;;5094162;28;19915;-70
2021/05/03 01:01:55;;;;;;;;;;;0.80;96.40;;;;;;5076571;28;19912;-71
2021/05/03 01:04:21;;;;;;;;;;;0.90;96.50;;;;;;5080137;28;19916;-71
2021/05/03 01:06:46;;;;;;;;;;;0.80;97.10;;;;;;5084018;28;20232;-70
2021/05/03 01:09:12;;;;;;;;;;;0.70;96.90;;;;;;5081214;28;19924;-71
2021/05/03 01:11:38;;;;;;;;;;;0.70;96.80;;;;;;5076486;28;19916;-71
2021/05/03 01:14:04;;;;;;;;;;;0.70;96.60;;;;;;5077877;28;19927;-70
2021/05/03 01:16:29;;;;;;;;;;;0.80;96.60;;;;;;5080507;28;19924;-71
2021/05/03 01:18:55;;;;;;;;;;;0.70;96.70;;;;;;5078020;28;19986;-71
2021/05/03 01:21:27;;;;;;;;;;;0.80;96.70;;;;;;5086172;28;19916;-70
2021/05/03 01:23:53;;;;;;;;;;;0.80;96.60;;;;;;5081932;28;20364;-71
2021/05/03 01:26:18;;;;;;;;;;;0.90;96.70;;;;;;5085413;28;20003;-71
2021/05/03 01:28:44;;;;;;;;;;;0.90;96.60;;;;;;5095066;28;19977;-71
2021/05/03 01:31:10;;;;;;;;;;;1.10;96.40;;;;;;5080823;28;19913;-71
2021/05/03 01:33:36;;;;;;;;;;;1.20;96.90;;;;;;5074507;28;20361;-71
2021/05/03 01:36:01;;;;;;;;;;;1.10;96.80;;;;;;5087205;28;19916;-71
2021/05/03 01:38:27;;;;;;;;;;;1.10;97.10;;;;;;5086078;28;20049;-72
2021/05/03 01:40:52;;;;;;;;;;;0.90;97.20;;;;;;5076470;28;19916;-71
2021/05/03 01:43:21;;;;;;;;;;;0.90;96.60;;;;;;5085683;28;19920;-71
2021/05/03 01:45:47;;;;;;;;;;;0.90;96.50;;;;;;5079117;28;20042;-72
2021/05/03 01:48:14;;;;;;;;;;;0.90;96.90;;;;;;5088766;28;19916;-72
2021/05/03 01:50:40;;;;;;;;;;;0.90;96.80;;;;;;5076835;28;19920;-70
2021/05/03 01:53:06;;;;;;;;;;;1.00;96.70;;;;;;5080246;28;19920;-71
2021/05/03 01:55:33;;;;;;;;;;;0.90;96.80;;;;;;5086740;28;19912;-72
2021/05/03 01:57:58;;;;;;;;;;;1.00;96.60;;;;;;5092528;28;20133;-71
2021/05/03 02:00:24;;;;;;;;;;;0.80;96.90;;;;;;5094116;28;20482;-71
2021/05/03 02:02:50;;;;;;;;;;;0.90;96.80;;;;;;5076819;28;20020;-71
2021/05/03 02:05:16;;;;;;;;;;;0.80;97.00;;;;;;5092646;28;19920;-71
2021/05/03 02:07:42;;;;;;;;;;;0.90;96.70;;;;;;5097683;28;20305;-71
2021/05/03 02:10:07;;;;;;;;;;;0.90;97.10;;;;;;5079179;28;19912;-72
2021/05/03 02:12:35;;;;;;;;;;;1.00;96.60;;;;;;5090700;28;20006;-71
2021/05/03 02:15:01;;;;;;;;;;;0.90;97.00;;;;;;5096822;28;19924;-71
2021/05/03 02:17:27;;;;;;;;;;;1.10;96.60;;;;;;5091984;28;20278;-72
2021/05/03 02:19:52;;;;;;;;;;;1.20;97.00;;;;;;5095202;28;19965;-71
2021/05/03 02:22:18;;;;;;;;;;;1.10;97.20;;;;;;5090913;28;20005;-71
2021/05/03 02:24:43;;;;;;;;;;;1.00;97.30;;;;;;5086286;28;19954;-71
2021/05/03 02:27:09;;;;;;;;;;;0.90;97.00;;;;;;5085216;28;19912;-71
2021/05/03 02:29:35;;;;;;;;;;;0.90;96.80;;;;;;5095957;28;19983;-72
2021/05/03 02:32:00;;;;;;;;;;;1.00;96.80;;;;;;5093492;28;20006;-72
2021/05/03 02:34:26;;;;;;;;;;;1.20;96.80;;;;;;5083019;28;20272;-72
2021/05/03 02:36:55;;;;;;;;;;;1.20;96.90;;;;;;5079285;28;19925;-71
2021/05/03 02:39:21;;;;;;;;;;;1.20;97.00;;;;;;5091677;28;19950;-71
2021/05/03 02:41:46;;;;;;;;;;;1.40;96.90;;;;;;5088018;28;20300;-70
2021/05/03 02:44:12;;;;;;;;;;;1.60;96.90;;;;;;5089991;28;19923;-70
2021/05/03 02:46:37;;;;;;;;;;;1.70;96.70;;;;;;5088000;28;19953;-70
2021/05/03 02:49:03;;;;;;;;;;;1.90;97.10;;;;;;5089087;28;19973;-70
2021/05/03 02:51:29;;;;;;;;;;;2.00;96.90;;;;;;5085408;28;19927;-70
2021/05/03 02:53:55;;;;;;;;;;;2.10;96.70;;;;;;5084832;28;19918;-72
2021/05/03 02:56:20;;;;;;;;;;;2.10;97.10;;;;;;5084760;28;19916;-71
2021/05/03 02:58:46;;;;;;;;;;;2.20;96.70;;;;;;5077306;28;20285;-72
2021/05/03 03:01:11;;;;;;;;;;;2.40;97.30;;;;;;5077704;28;20361;-71
2021/05/03 03:03:37;;;;;;;;;;;2.40;97.20;;;;;;5075769;28;20237;-71
2021/05/03 03:06:02;;;;;;;;;;;2.60;97.40;;;;;;5075595;28;20209;-72
2021/05/03 03:08:29;;;;;;;;;;;2.40;98.00;;;;;;5091456;28;19919;-71
2021/05/03 03:10:55;;;;;;;;;;;2.40;98.00;;;;;;5091082;28;20273;-70
2021/05/03 03:13:41;;;;;;;;;;;2.10;98.00;;;;;;5078874;28;19999;-71
2021/05/03 03:16:09;;;;;;;;;;;2.10;98.00;;;;;;5081793;28;19921;-72
2021/05/03 03:18:34;;;;;;;;;;;2.00;97.70;;;;;;5074962;28;20391;-72
2021/05/03 03:21:03;;;;;;;;;;;1.90;98.00;;;;;;5081412;28;19912;-72
2021/05/03 03:23:28;;;;;;;;;;;2.00;97.70;;;;;;5092628;28;20325;-71
2021/05/03 03:25:54;;;;;;;;;;;1.90;97.60;;;;;;5087181;28;20012;-72
2021/05/03 03:28:19;;;;;;;;;;;1.90;98.00;;;;;;5086958;28;19937;-71
2021/05/03 03:30:45;;;;;;;;;;;1.90;98.00;;;;;;5085975;28;20006;-70
2021/05/03 03:33:10;;;;;;;;;;;2.00;97.90;;;;;;5084689;28;20011;-70
2021/05/03 03:35:36;;;;;;;;;;;1.90;98.00;;;;;;5088407;28;20001;-71
2021/05/03 03:38:01;;;;;;;;;;;1.70;98.00;;;;;;5080844;28;20364;-71
2021/05/03 03:40:27;;;;;;;;;;;1.60;98.00;;;;;;5079550;28;19920;-70
2021/05/03 03:42:52;;;;;;;;;;;1.50;97.90;;;;;;5085618;28;19912;-71
2021/05/03 03:45:19;;;;;;;;;;;1.30;97.70;;;;;;5085013;28;19999;-72
2021/05/03 03:47:45;;;;;;;;;;;1.30;97.50;;;;;;5082847;28;19919;-71
2021/05/03 03:50:11;;;;;;;;;;;1.30;97.80;;;;;;5077142;28;20225;-71
2021/05/03 03:52:36;;;;;;;;;;;1.20;97.60;;;;;;5087374;28;19924;-71
2021/05/03 03:55:02;;;;;;;;;;;1.20;97.40;;;;;;5089624;28;19973;-71
2021/05/03 03:57:29;;;;;;;;;;;1.20;97.70;;;;;;5084637;28;19916;-71
2021/05/03 03:59:56;;;;;;;;;;;1.10;97.40;;;;;;5091122;28;19916;-71
2021/05/03 04:02:22;;;;;;;;;;;1.20;97.50;;;;;;5086729;28;19924;-72
2021/05/03 04:26:28;;;;;;;;;;;0.80;97.10;;;;;;5074647;28;19912;-72
2021/05/03 04:28:54;;;;;;;;;;;0.70;97.30;;;;;;5085609;28;19981;-70
2021/05/03 04:31:20;;;;;;;;;;;0.80;97.00;;;;;;5090062;28;19936;-71
2021/05/03 04:33:47;;;;;;;;;;;0.80;97.40;;;;;;5089918;28;20332;-71
2021/05/03 04:36:12;;;;;;;;;;;0.80;97.00;;;;;;5091507;28;19912;-71
2021/05/03 04:38:38;;;;;;;;;;;0.90;96.60;;;;;;5075606;28;19923;-70
2021/05/03 04:41:04;;;;;;;;;;;1.10;97.00;;;;;;5079667;28;20317;-70
2021/05/03 04:43:29;;;;;;;;;;;1.20;96.90;;;;;;5073648;28;20321;-71
2021/05/03 04:45:55;;;;;;;;;;;1.20;97.30;;;;;;5086192;28;19912;-71
2021/05/03 04:48:20;;;;;;;;;;;1.20;97.20;;;;;;5085673;28;19916;-70
2021/05/03 04:50:46;;;;;;;;;;;1.10;97.40;;;;;;5088392;28;19917;-71
2021/05/03 04:53:11;;;;;;;;;;;1.20;97.30;;;;;;5085146;28;19916;-71
2021/05/03 04:55:37;;;;;;;;;;;1.10;97.10;;;;;;5091938;28;19916;-70
2021/05/03 04:58:03;;;;;;;;;;;1.10;97.60;;;;;;5094800;28;19979;-71
2021/05/03 05:00:28;;;;;;;;;;;1.10;97.30;;;;;;5084036;28;19965;-70
2021/05/03 05:02:54;;;;;;;;;;;1.10;97.10;;;;;;5083854;28;19912;-70
2021/05/03 05:05:20;;;;;;;;;;;1.20;97.20;;;;;;5076183;28;19920;-71
2021/05/03 05:07:45;;;;;;;;;;;1.20;97.10;;;;;;5079913;28;20309;-70
2021/05/03 05:10:11;;;;;;;;;;;1.30;97.00;;;;;;5088490;28;19912;-70
2021/05/03 05:12:37;;;;;;;;;;;1.40;97.30;;;;;;5090103;28;19916;-70
2021/05/03 05:15:03;;;;;;;;;;;1.50;96.80;;;;;;5098015;28;19927;-70
2021/05/03 05:17:29;;;;;;;;;;;1.90;96.90;;;;;;5096134;28;19912;-71
2021/05/03 05:19:55;;;;;;;;;;;2.10;97.00;;;;;;5077455;28;20297;-71
2021/05/03 05:22:20;;;;;;;;;;;2.40;97.10;;;;;;5074661;28;19919;-71
2021/05/03 05:24:46;;;;;;;;;;;2.50;97.50;;;;;;5091286;28;19923;-71
2021/05/03 05:27:12;;;;;;;;;;;2.70;97.30;;;;;;5095798;28;19934;-72
2021/05/03 05:29:37;;;;;;;;;;;2.90;97.30;;;;;;5078876;28;19917;-72
2021/05/03 05:32:03;;;;;;;;;;;3.20;97.90;;;;;;5079155;28;19912;-72
2021/05/03 05:34:29;;;;;;;;;;;3.50;98.00;;;;;;5096089;28;19995;-72
2021/05/03 05:36:54;;;;;;;;;;;3.70;98.00;;;;;;5093098;28;19912;-71
2021/05/03 05:39:20;;;;;;;;;;;3.80;98.00;;;;;;5075806;28;19916;-70
2021/05/03 05:41:45;;;;;;;;;;;3.90;98.00;;;;;;5075419;28;20373;-70
2021/05/03 05:44:11;;;;;;;;;;;3.90;98.00;;;;;;5093646;28;19908;-69
2021/05/03 05:46:38;;;;;;;;;;;3.90;98.00;;;;;;5094881;28;19965;-70
2021/05/03 05:49:03;;;;;;;;;;;4.10;98.00;;;;;;5075744;28;19920;-72
2021/05/03 05:51:29;;;;;;;;;;;4.20;98.00;;;;;;5076677;28;19912;-71
2021/05/03 05:53:55;;;;;;;;;;;4.30;98.00;;;;;;5074614;28;19912;-72
2021/05/03 05:56:21;;;;;;;;;;;4.30;98.00;;;;;;5075741;28;20025;-72
2021/05/03 05:58:47;;;;;;;;;;;4.50;98.00;;;;;;5075533;28;19994;-71
2021/05/03 06:01:12;;;;;;;;;;;4.60;98.00;;;;;;5076547;28;19912;-72
2021/05/03 06:03:38;;;;;;;;;;;4.70;98.00;;;;;;5083050;28;20327;-71
2021/05/03 06:06:04;;;;;;;;;;;4.80;97.60;;;;;;5095757;28;20002;-70
2021/05/03 06:08:29;;;;;;;;;;;4.90;97.60;;;;;;5093859;28;19920;-70
2021/05/03 06:10:55;;;;;;;;;;;5.00;97.40;;;;;;5095656;28;19920;-71
2021/05/03 06:13:21;;;;;;;;;;;5.10;97.40;;;;;;5076955;28;19916;-70
2021/05/03 06:15:46;;;;;;;;;;;5.20;96.70;;;;;;5083153;28;20276;-70
2021/05/03 06:18:12;;;;;;;;;;;5.20;96.40;;;;;;5083601;28;19916;-71
2021/05/03 06:20:38;;;;;;;;;;;5.30;96.50;;;;;;5078841;28;19938;-71
2021/05/03 06:23:05;;;;;;;;;;;5.30;95.80;;;;;;5089999;28;19965;-72
2021/05/03 06:25:31;;;;;;;;;;;5.40;95.70;;;;;;5095610;28;19908;-71
2021/05/03 06:27:56;;;;;;;;;;;5.40;95.40;;;;;;5081086;28;20330;-71
2021/05/03 06:30:23;;;;;;;;;;;5.40;94.70;;;;;;5074345;28;19908;-71
2021/05/03 06:32:49;;;;;;;;;;;5.50;94.20;;;;;;5087972;28;19912;-72
2021/05/03 06:35:15;;;;;;;;;;;5.70;94.20;;;;;;5095595;28;20000;-72
2021/05/03 06:37:40;;;;;;;;;;;5.70;93.50;;;;;;5082867;28;20316;-71
2021/05/03 06:40:06;;;;;;;;;;;5.80;93.20;;;;;;5078659;28;19916;-72
2021/05/03 06:42:32;;;;;;;;;;;5.90;92.70;;;;;;5090067;28;19962;-72
2021/05/03 06:44:58;;;;;;;;;;;5.90;93.20;;;;;;5074304;28;19912;-72
2021/05/03 06:47:25;;;;;;;;;;;6.00;91.90;;;;;;5075194;28;19913;-71
2021/05/03 06:49:50;;;;;;;;;;;6.10;91.40;;;;;;5075224;28;19912;-72
2021/05/03 06:52:16;;;;;;;;;;;6.30;91.00;;;;;;5074406;28;19958;-71
2021/05/03 06:54:42;;;;;;;;;;;6.40;90.00;;;;;;5078754;28;19916;-71
2021/05/03 06:57:07;;;;;;;;;;;6.40;88.80;;;;;;5078646;28;19912;-71
2021/05/03 06:59:33;;;;;;;;;;;6.50;87.70;;;;;;5078672;28;19913;-72
2021/05/03 07:01:58;;;;;;;;;;;6.60;88.40;;;;;;5080739;28;19912;-71
2021/05/03 07:04:24;;;;;;;;;;;6.70;88.80;;;;;;5095671;28;19964;-72
2021/05/03 07:06:49;;;;;;;;;;;6.80;89.10;;;;;;5096793;28;19912;-72
2021/05/03 07:09:15;;;;;;;;;;;6.90;88.10;;;;;;5096674;28;19912;-71
2021/05/03 07:11:41;;;;;;;;;;;7.00;88.20;;;;;;5095300;28;19923;-72
2021/05/03 07:14:07;;;;;;;;;;;7.10;86.10;;;;;;5095673;28;19920;-72
2021/05/03 07:16:33;;;;;;;;;;;7.10;85.20;;;;;;5086647;28;20058;-71
2021/05/03 07:18:59;;;;;;;;;;;7.30;84.90;;;;;;5097837;28;20232;-71
2021/05/03 07:21:24;;;;;;;;;;;7.40;83.80;;;;;;5097338;28;19944;-72
2021/05/03 07:23:50;;;;;;;;;;;7.50;84.20;;;;;;5097240;28;19908;-72
2021/05/03 07:26:16;;;;;;;;;;;7.60;83.70;;;;;;5081379;28;19916;-72
2021/05/03 07:28:42;;;;;;;;;;;7.70;83.90;;;;;;5083896;28;19916;-71
2021/05/03 07:31:07;;;;;;;;;;;7.60;84.00;;;;;;5081299;28;19912;-72
2021/05/03 07:33:33;;;;;;;;;;;7.50;84.50;;;;;;5081904;28;20366;-71
2021/05/03 07:35:59;;;;;;;;;;;7.70;83.80;;;;;;5098255;28;20006;-72
2021/05/03 07:38:24;;;;;;;;;;;7.50;83.60;;;;;;5085510;28;19924;-72
2021/05/03 07:40:50;;;;;;;;;;;8.00;83.70;;;;;;5096428;28;19916;-71
2021/05/03 07:43:16;;;;;;;;;;;8.90;80.70;;;;;;5096342;28;19908;-72
2021/05/03 07:45:44;;;;;;;;;;;9.60;77.40;;;;;;5086973;28;19920;-72
2021/05/03 07:48:10;;;;;;;;;;;10.40;76.70;;;;;;5097029;28;19948;-72
2021/05/03 07:50:37;;;;;;;;;;;10.80;74.40;;;;;;5090080;28;19920;-72
2021/05/03 07:53:02;;;;;;;;;;;11.70;72.80;;;;;;5076514;28;19913;-71
2021/05/03 07:55:28;;;;;;;;;;;12.50;69.90;;;;;;5078742;28;19925;-71
2021/05/03 07:57:54;;;;;;;;;;;12.30;69.70;;;;;;5087499;28;19923;-72
2021/05/03 08:00:20;;;;;;;;;;;12.30;69.20;;;;;;5092639;28;20003;-72
2021/05/03 08:02:45;;;;;;;;;;;12.20;71.00;;;;;;5093393;28;19912;-72
2021/05/03 08:05:11;;;;;;;;;;;11.90;69.90;;;;;;5095827;28;20320;-72
2021/05/03 08:07:37;;;;;;;;;;;11.00;71.30;;;;;;5096433;28;19908;-72
2021/05/03 08:10:03;;;;;;;;;;;10.80;72.60;;;;;;5080752;28;19912;-72
2021/05/03 08:12:29;;;;;;;;;;;11.70;71.00;;;;;;5088850;28;19999;-72
2021/05/03 08:14:55;;;;;;;;;;;11.70;68.50;;;;;;5077965;28;20018;-72
2021/05/03 08:17:20;;;;;;;;;;;12.30;69.50;;;;;;5077082;28;20011;-72
2021/05/03 08:19:46;;;;;;;;;;;13.50;66.60;;;;;;5078288;28;19951;-72
2021/05/03 08:22:12;;;;;;;;;;;12.60;66.50;;;;;;5075717;28;20343;-72
2021/05/03 08:24:38;;;;;;;;;;;11.10;66.90;;;;;;5089723;28;19967;-72
2021/05/03 08:27:04;;;;;;;;;;;10.30;70.90;;;;;;5081804;28;20278;-71
2021/05/03 08:29:30;;;;;;;;;;;11.20;70.80;;;;;;5095097;28;19915;-72
2021/05/03 08:31:56;;;;;;;;;;;12.80;65.00;;;;;;5090137;28;19919;-71
2021/05/03 08:34:23;;;;;;;;;;;13.30;63.30;;;;;;5093358;28;19916;-70
2021/05/03 08:36:50;;;;;;;;;;;13.50;63.40;;;;;;5094725;28;19991;-70
2021/05/03 08:39:15;;;;;;;;;;;12.60;64.70;;;;;;5094227;28;20250;-70
2021/05/03 08:41:41;;;;;;;;;;;11.40;65.00;;;;;;5080754;28;20038;-70
2021/05/03 08:44:07;;;;;;;;;;;10.50;66.70;;;;;;5092554;28;20270;-72
2021/05/03 08:46:38;;;;;;;;;;;11.00;68.10;;;;;;5095632;28;19908;-72
2021/05/03 08:51:39;;;;;;;;;;;10.30;70.80;;;;;;5095444;28;20011;-72
2021/05/03 08:56:33;;;;;;;;;;;12.00;67.10;;;;;;5080428;28;19920;-72
2021/05/03 08:58:59;;;;;;;;;;;12.80;66.20;;;;;;5080092;28;19966;-71
2021/05/03 09:01:25;;;;;;;;;;;12.90;64.40;;;;;;5080461;28;19920;-71
2021/05/03 09:03:53;;;;;;;;;;;13.20;61.90;;;;;;5080235;28;19920;-71
2021/05/03 09:06:19;;;;;;;;;;;13.10;61.60;;;;;;5080784;28;19999;-72
2021/05/03 09:08:44;;;;;;;;;;;11.90;65.00;;;;;;5077741;28;20014;-71
2021/05/03 09:11:13;;;;;;;;;;;11.30;65.00;;;;;;5078800;28;19920;-71
2021/05/03 09:13:39;;;;;;;;;;;12.30;64.80;;;;;;5084461;28;19920;-71
2021/05/03 09:16:34;;;;;;;;;;;13.30;62.80;;;;;;5075210;28;19920;-70
2021/05/03 09:19:01;;;;;;;;;;;13.40;61.30;;;;;;5074320;28;19928;-71
2021/05/03 09:21:30;;;;;;;;;;;13.60;63.00;;;;;;5093657;28;20223;-71
2021/05/03 09:23:59;;;;;;;;;;;14.80;62.40;;;;;;5082988;28;20332;-72
2021/05/03 09:26:46;;;;;;;;;;;15.10;56.70;;;;;;5077036;28;19913;-72
2021/05/03 09:29:31;;;;;;;;;;;14.00;58.90;;;;;;5090767;28;19923;-72
2021/05/03 09:31:56;;;;;;;;;;;12.80;57.80;;;;;;5078898;28;19924;-72
2021/05/03 09:34:26;;;;;;;;;;;12.20;60.40;;;;;;5076078;28;19935;-71
2021/05/03 09:36:51;;;;;;;;;;;11.70;62.00;;;;;;5080949;28;19912;-72
2021/05/03 09:39:28;;;;;;;;;;;11.50;62.80;;;;;;5086554;28;19909;-71
2021/05/03 09:41:54;;;;;;;;;;;11.20;63.60;;;;;;5096068;28;19934;-72
2021/05/03 09:44:19;;;;;;;;;;;11.10;64.50;;;;;;5077074;28;19912;-71
2021/05/03 09:46:47;;;;;;;;;;;11.00;65.40;;;;;;5080184;28;20316;-70
2021/05/03 09:49:13;;;;;;;;;;;10.80;65.10;;;;;;5092418;28;19913;-71
2021/05/03 09:51:41;;;;;;;;;;;10.30;66.20;;;;;;5094041;28;19912;-71
2021/05/03 09:54:09;;;;;;;;;;;10.10;68.60;;;;;;5093619;28;19912;-71
2021/05/03 09:56:44;;;;;;;;;;;9.90;69.50;;;;;;5075544;28;19912;-71
2021/05/03 09:59:27;;;;;;;;;;;9.90;68.90;;;;;;5083995;28;19924;-72
2021/05/03 10:02:19;;;;;;;;;;;9.90;69.10;;;;;;5075902;28;19909;-72
2021/05/03 10:04:49;;;;;;;;;;;10.20;69.90;;;;;;5076798;28;19913;-71
2021/05/03 10:07:18;;;;;;;;;;;11.30;68.00;;;;;;5074412;28;19920;-72
2021/05/03 10:09:50;;;;;;;;;;;12.40;66.40;;;;;;5074822;28;20312;-71
2021/05/03 10:12:17;;;;;;;;;;;13.10;63.30;;;;;;5075623;28;19909;-72
2021/05/03 10:14:43;;;;;;;;;;;12.50;62.40;;;;;;5075384;28;19959;-72
2021/05/03 10:17:09;;;;;;;;;;;12.10;62.80;;;;;;5075503;28;19916;-72
2021/05/03 10:19:35;;;;;;;;;;;12.10;62.40;;;;;;5080033;28;19942;-71
2021/05/03 10:22:03;;;;;;;;;;;12.00;61.70;;;;;;5084983;28;19980;-71
2021/05/03 10:24:29;;;;;;;;;;;12.80;60.90;;;;;;5082033;28;20209;-71
2021/05/03 10:26:54;;;;;;;;;;;13.20;60.60;;;;;;5087585;28;19913;-71
2021/05/03 10:29:41;;;;;;;;;;;13.50;59.20;;;;;;5097612;28;19919;-71
2021/05/03 10:32:08;;;;;;;;;;;13.70;60.20;;;;;;5094685;28;19917;-71
2021/05/03 10:34:37;;;;;;;;;;;14.50;55.60;;;;;;5080185;28;20181;-71
2021/05/03 10:37:02;;;;;;;;;;;15.20;52.40;;;;;;5094983;28;20013;-71
2021/05/03 10:39:28;;;;;;;;;;;15.70;52.60;;;;;;5088255;28;20045;-72
2021/05/03 10:42:07;;;;;;;;;;;14.20;54.70;;;;;;5078964;28;19978;-71
2021/05/03 10:44:34;;;;;;;;;;;13.40;56.50;;;;;;5080077;28;19916;-70
2021/05/03 10:47:05;;;;;;;;;;;12.60;59.20;;;;;;5086165;28;19994;-70
2021/05/03 10:49:32;;;;;;;;;;;12.20;59.90;;;;;;5090446;28;19919;-70
2021/05/03 10:54:33;;;;;;;;;;;11.50;62.20;;;;;;5092442;28;19913;-71
2021/05/03 10:57:00;;;;;;;;;;;11.70;62.60;;;;;;5082411;28;19924;-69
2021/05/03 10:59:26;;;;;;;;;;;11.80;61.60;;;;;;5080886;28;19926;-70
2021/05/03 11:01:54;;;;;;;;;;;12.40;60.70;;;;;;5084647;28;19981;-70
2021/05/03 11:04:21;;;;;;;;;;;13.60;57.60;;;;;;5084725;28;20296;-70
2021/05/03 11:06:46;;;;;;;;;;;14.40;55.00;;;;;;5081300;28;20541;-71
2021/05/03 11:11:57;;;;;;;;;;;14.50;54.30;;;;;;5080345;28;19920;-70
2021/05/03 11:14:22;;;;;;;;;;;13.70;54.30;;;;;;5084346;28;20339;-70
2021/05/03 11:16:49;;;;;;;;;;;13.60;56.50;;;;;;5093471;28;19993;-69
2021/05/03 11:19:32;;;;;;;;;;;14.60;54.30;;;;;;5081418;28;19927;-70
2021/05/03 11:21:57;;;;;;;;;;;14.80;54.80;;;;;;5082637;28;19973;-70
2021/05/03 11:24:39;;;;;;;;;;;14.10;56.20;;;;;;5082468;28;20014;-69
2021/05/03 11:27:09;;;;;;;;;;;13.90;57.10;;;;;;5082379;28;19920;-70
2021/05/03 11:29:52;;;;;;;;;;;13.80;56.00;;;;;;5082144;28;19925;-70
2021/05/03 11:32:18;;;;;;;;;;;13.10;56.80;;;;;;5083128;28;20249;-70
2021/05/03 11:34:47;;;;;;;;;;;12.80;57.70;;;;;;5079748;28;19920;-70
2021/05/03 11:37:17;;;;;;;;;;;13.60;58.60;;;;;;5078578;28;19961;-70
2021/05/03 11:40:00;;;;;;;;;;;13.70;56.10;;;;;;5079559;28;19919;-69
2021/05/03 11:44:56;;;;;;;;;;;12.20;59.60;;;;;;5079817;28;19911;-70
2021/05/03 11:47:28;;;;;;;;;;;12.50;58.10;;;;;;5085394;28;19912;-71
2021/05/03 11:49:54;;;;;;;;;;;12.50;58.90;;;;;;5081996;28;19919;-70
2021/05/03 11:52:26;;;;;;;;;;;12.60;59.10;;;;;;5084124;28;19941;-71
2021/05/03 11:54:52;;;;;;;;;;;12.50;59.40;;;;;;5080621;28;19912;-70
2021/05/03 11:57:20;;;;;;;;;;;12.80;59.20;;;;;;5079659;28;19916;-70
2021/05/03 11:59:46;;;;;;;;;;;13.00;59.00;;;;;;5081243;28;19916;-70
2021/05/03 12:02:15;;;;;;;;;;;13.60;58.10;;;;;;5081796;28;20323;-70
2021/05/03 12:04:42;;;;;;;;;;;14.70;56.20;;;;;;5089249;28;19920;-69
2021/05/03 12:07:11;;;;;;;;;;;14.70;54.20;;;;;;5094618;28;19923;-70
2021/05/03 12:09:37;;;;;;;;;;;13.50;55.30;;;;;;5086173;28;19912;-69
2021/05/03 12:12:03;;;;;;;;;;;13.10;56.00;;;;;;5098825;28;19915;-69
2021/05/03 12:14:48;;;;;;;;;;;13.80;55.60;;;;;;5090396;28;19924;-70
2021/05/03 12:17:27;;;;;;;;;;;13.40;57.40;;;;;;5085804;28;19962;-70
2021/05/03 12:19:57;;;;;;;;;;;13.10;57.10;;;;;;5094597;28;19916;-70
2021/05/03 12:22:24;;;;;;;;;;;12.60;57.80;;;;;;5093266;28;19912;-70
2021/05/03 12:24:51;;;;;;;;;;;12.50;57.30;;;;;;5086214;28;19927;-71
2021/05/03 12:27:16;;;;;;;;;;;12.70;56.40;;;;;;5081804;28;19926;-70
2021/05/03 12:29:43;;;;;;;;;;;13.60;56.60;;;;;;5076799;28;19964;-70
2021/05/03 12:32:10;;;;;;;;;;;14.20;54.80;;;;;;5079845;28;19920;-70
2021/05/03 12:34:40;;;;;;;;;;;15.10;53.70;;;;;;5084087;28;19927;-70
2021/05/03 12:37:14;;;;;;;;;;;16.10;54.00;;;;;;5085284;28;19927;-70
2021/05/03 12:39:54;;;;;;;;;;;16.30;53.30;;;;;;5096974;28;19908;-70
2021/05/03 12:42:20;;;;;;;;;;;15.20;54.10;;;;;;5092142;28;20271;-69
2021/05/03 12:44:54;;;;;;;;;;;14.90;54.00;;;;;;5092208;28;19961;-69
2021/05/03 12:47:31;;;;;;;;;;;15.10;54.00;;;;;;5093256;28;19922;-69
2021/05/03 12:50:11;;;;;;;;;;;15.00;53.90;;;;;;5095082;28;20331;-69
2021/05/03 12:52:48;;;;;;;;;;;14.80;54.00;;;;;;5081246;28;19923;-68
2021/05/03 12:55:33;;;;;;;;;;;15.00;54.80;;;;;;5085837;28;19938;-69
2021/05/03 12:58:09;;;;;;;;;;;15.10;55.50;;;;;;5096740;28;20323;-69
2021/05/03 13:00:47;;;;;;;;;;;15.50;53.90;;;;;;5094818;28;20266;-70
2021/05/03 13:03:16;;;;;;;;;;;15.60;53.50;;;;;;5096663;28;20211;-70
2021/05/03 13:05:52;;;;;;;;;;;15.60;54.50;;;;;;5083869;28;19912;-69
2021/05/03 13:28:59;;;;;;;;;;;16.10;50.80;;;;;;5075910;28;19913;-69
2021/05/03 13:31:24;;;;;;;;;;;15.30;53.90;;;;;;5074832;28;19909;-70
2021/05/03 13:33:50;;;;;;;;;;;15.60;53.70;;;;;;5075842;28;19954;-69
2021/05/03 13:36:15;;;;;;;;;;;15.70;54.10;;;;;;5075824;28;19995;-70
2021/05/03 13:38:41;;;;;;;;;;;15.90;52.60;;;;;;5074543;28;20007;-69
2021/05/03 13:41:06;;;;;;;;;;;15.80;52.20;;;;;;5075955;28;19963;-69
2021/05/03 13:43:32;;;;;;;;;;;15.30;51.80;;;;;;5075629;28;20277;-70
2021/05/03 13:45:57;;;;;;;;;;;14.90;53.80;;;;;;5082373;28;19919;-69
2021/05/03 13:48:23;;;;;;;;;;;14.70;53.90;;;;;;5075682;28;20015;-69
2021/05/03 13:50:48;;;;;;;;;;;15.00;54.80;;;;;;5075669;28;19952;-70
2021/05/03 13:53:14;;;;;;;;;;;15.00;54.30;;;;;;5074751;28;19909;-69
2021/05/03 13:55:40;;;;;;;;;;;14.50;54.70;;;;;;5075668;28;19918;-70
2021/05/03 13:58:06;;;;;;;;;;;14.80;55.90;;;;;;5075668;28;20216;-70
2021/05/03 14:00:31;;;;;;;;;;;15.80;53.20;;;;;;5075718;28;19913;-69
2021/05/03 14:02:57;;;;;;;;;;;16.30;53.20;;;;;;5098005;28;19912;-70
2021/05/03 14:05:22;;;;;;;;;;;16.70;53.20;;;;;;5099334;28;19916;-70
2021/05/03 14:07:49;;;;;;;;;;;16.20;53.50;;;;;;5098765;28;19915;-70
2021/05/03 14:10:14;;;;;;;;;;;16.80;53.70;;;;;;5100012;28;19965;-70
2021/05/03 14:12:40;;;;;;;;;;;16.40;52.30;;;;;;5099857;28;19915;-70
2021/05/03 14:15:06;;;;;;;;;;;16.00;52.50;;;;;;5098464;28;19919;-69
2021/05/03 14:17:31;;;;;;;;;;;16.50;52.30;;;;;;5099627;28;19916;-69
2021/05/03 14:19:57;;;;;;;;;;;16.80;52.50;;;;;;5099274;28;19915;-70
2021/05/03 14:22:22;;;;;;;;;;;15.70;52.80;;;;;;5098480;28;20223;-69
2021/05/03 14:24:48;;;;;;;;;;;14.60;56.00;;;;;;5099617;28;19908;-70
2021/05/03 14:27:13;;;;;;;;;;;14.40;57.40;;;;;;5099608;28;20204;-69
2021/05/03 14:29:44;;;;;;;;;;;15.00;55.70;;;;;;5099478;28;20297;-69
2021/05/03 14:32:26;;;;;;;;;;;15.20;55.80;;;;;;5099037;28;19908;-69
2021/05/03 14:34:54;;;;;;;;;;;15.10;56.00;;;;;;5099388;28;19919;-69
2021/05/03 14:37:21;;;;;;;;;;;15.90;55.90;;;;;;5096175;28;19958;-70
2021/05/03 14:39:46;;;;;;;;;;;15.90;52.80;;;;;;5099017;28;19935;-69
2021/05/03 14:42:12;;;;;;;;;;;15.80;54.70;;;;;;5090207;28;19913;-70
2021/05/03 14:44:37;;;;;;;;;;;16.20;54.80;;;;;;5077150;28;20228;-69
2021/05/03 14:47:07;;;;;;;;;;;17.00;52.10;;;;;;5075870;28;20223;-69
2021/05/03 14:52:10;;;;;;;;;;;18.40;49.40;;;;;;5074561;28;19955;-70
2021/05/03 14:54:42;;;;;;;;;;;17.70;51.90;;;;;;5075442;28;19985;-70
2021/05/03 14:57:11;;;;;;;;;;;17.70;49.30;;;;;;5075852;28;20220;-70
2021/05/03 14:59:37;;;;;;;;;;;17.80;50.70;;;;;;5074721;28;19967;-70
2021/05/03 15:02:03;;;;;;;;;;;19.30;48.90;;;;;;5075723;28;19940;-70
2021/05/03 15:04:29;;;;;;;;;;;19.50;48.00;;;;;;5075665;28;19977;-70
2021/05/03 15:07:10;;;;;;;;;;;19.50;47.60;;;;;;5074198;28;19916;-70
2021/05/03 15:09:45;;;;;;;;;;;18.80;48.20;;;;;;5091113;28;19928;-70
2021/05/03 15:12:23;;;;;;;;;;;19.20;47.20;;;;;;5095541;28;19929;-70
2021/05/03 15:20:26;;;;;;;;;;;18.20;49.00;;;;;;5095610;28;20413;-70
2021/05/03 15:22:53;;;;;;;;;;;17.60;47.70;;;;;;5094440;28;19912;-69
2021/05/03 15:25:20;;;;;;;;;;;17.70;49.50;;;;;;5095747;28;19908;-69
2021/05/03 15:30:52;;;;;;;;;;;17.50;49.20;;;;;;5095154;28;20335;-69